createdAt,value
2019-01-16T00:02:50.419Z,4.53
2019-01-16T00:05:55.302Z,2.40
2019-01-16T00:08:49.363Z,4.17
2019-01-16T00:11:42.104Z,5.83
2019-01-16T00:14:30.671Z,3.40
2019-01-16T00:17:15.727Z,3.13
2019-01-16T00:20:03.887Z,5.77
2019-01-16T00:22:51.611Z,6.10
2019-01-16T00:25:48.870Z,3.40
2019-01-16T00:28:37.299Z,3.97
2019-01-16T00:31:29.640Z,5.40
2019-01-16T00:34:18.309Z,2.55
2019-01-16T00:37:18.285Z,8.75
2019-01-16T00:40:09.093Z,4.50
2019-01-16T00:42:57.242Z,3.43
2019-01-16T00:45:49.759Z,3.27
2019-01-16T00:48:54.202Z,4.73
2019-01-16T00:51:49.836Z,3.20
2019-01-16T00:54:37.986Z,2.97
2019-01-16T00:57:19.243Z,3.37
2019-01-16T01:00:15.277Z,6.27
2019-01-16T01:03:07.556Z,5.47
2019-01-16T01:06:01.434Z,3.27
2019-01-16T01:08:50.859Z,4.00
2019-01-16T01:11:37.270Z,4.53
2019-01-16T01:14:19.071Z,3.60
2019-01-16T01:17:08.012Z,3.27
2019-01-16T01:20:00.275Z,2.47
2019-01-16T01:22:41.041Z,6.07
2019-01-16T01:25:29.389Z,3.80
2019-01-16T01:28:07.698Z,7.97
2019-01-16T01:30:55.980Z,5.27
2019-01-16T01:33:44.665Z,4.65
2019-01-16T01:36:46.131Z,4.93
2019-01-16T01:39:34.260Z,2.63
2019-01-16T01:42:29.969Z,2.67
2019-01-16T01:45:19.406Z,3.30
2019-01-16T01:48:09.103Z,6.30
2019-01-16T01:51:17.151Z,4.47
2019-01-16T01:53:58.678Z,6.37
2019-01-16T01:56:51.012Z,5.40
2019-01-16T01:59:39.360Z,2.70
2019-01-16T02:02:34.667Z,5.10
2019-01-16T02:05:23.618Z,4.77
2019-01-16T02:08:13.246Z,6.87
2019-01-16T02:11:15.186Z,4.30
2019-01-16T02:14:02.845Z,4.27
2019-01-16T02:16:42.921Z,5.37
2019-01-16T02:19:28.361Z,4.17
2019-01-16T02:22:16.849Z,5.80
2019-01-16T02:25:09.050Z,3.40
2019-01-16T02:27:56.894Z,4.62
2019-01-16T02:30:46.961Z,3.93
2019-01-16T02:33:35.776Z,5.80
2019-01-16T02:36:16.883Z,5.92
2019-01-16T02:38:59.141Z,8.50
2019-01-16T02:41:47.214Z,3.17
2019-01-16T02:44:39.953Z,5.17
2019-01-16T02:47:29.478Z,3.27
2019-01-16T02:50:17.994Z,5.70
2019-01-16T02:53:17.540Z,11.43
2019-01-16T02:56:25.382Z,4.63
2019-01-16T02:59:15.086Z,6.25
2019-01-16T03:02:13.606Z,6.80
2019-01-16T03:05:02.303Z,4.13
2019-01-16T03:07:40.550Z,6.63
2019-01-16T03:10:29.101Z,4.83
2019-01-16T03:13:12.753Z,5.00
2019-01-16T03:16:14.351Z,6.50
2019-01-16T03:19:13.340Z,6.00
2019-01-16T03:22:04.025Z,7.30
2019-01-16T03:24:52.428Z,4.27
2019-01-16T03:27:41.158Z,4.67
2019-01-16T03:30:43.465Z,4.83
2019-01-16T03:33:31.640Z,3.57
2019-01-16T03:36:11.407Z,6.15
2019-01-16T03:38:49.543Z,5.70
2019-01-16T03:41:26.751Z,6.53
2019-01-16T03:44:17.721Z,4.53
2019-01-16T03:47:05.878Z,2.63
2019-01-16T03:49:54.242Z,3.73
2019-01-16T03:52:42.868Z,3.93
2019-01-16T03:55:47.462Z,3.87
2019-01-16T03:58:32.382Z,5.90
2019-01-16T04:01:22.148Z,7.57
2019-01-16T04:03:59.984Z,3.00
2019-01-16T04:06:48.391Z,3.43
2019-01-16T04:09:41.339Z,2.73
2019-01-16T04:12:37.361Z,7.40
2019-01-16T04:15:42.610Z,4.35
2019-01-16T04:18:26.245Z,5.07
2019-01-16T04:21:21.695Z,5.87
2019-01-16T04:24:23.597Z,6.07
2019-01-16T04:27:31.578Z,2.45
2019-01-16T04:30:10.544Z,3.77
2019-01-16T04:32:55.349Z,4.73
2019-01-16T04:35:47.829Z,3.60
2019-01-16T04:38:36.058Z,4.30
2019-01-16T04:41:21.695Z,4.63
2019-01-16T04:44:11.901Z,3.17
2019-01-16T04:47:13.459Z,6.53
2019-01-16T04:49:54.774Z,4.20
2019-01-16T04:52:44.657Z,4.93
2019-01-16T04:55:40.545Z,6.90
2019-01-16T04:58:32.848Z,5.57
2019-01-16T05:01:21.211Z,6.93
2019-01-16T05:04:21.726Z,5.42
2019-01-16T05:07:17.462Z,3.57
2019-01-16T05:10:13.070Z,6.77
2019-01-16T05:13:05.334Z,5.97
2019-01-16T05:15:54.756Z,6.13
2019-01-16T05:18:48.056Z,4.37
2019-01-16T05:21:40.498Z,3.73
2019-01-16T05:24:29.779Z,7.07
2019-01-16T05:27:22.568Z,4.78
2019-01-16T05:30:11.971Z,4.50
2019-01-16T05:32:53.154Z,4.30
2019-01-16T05:35:35.990Z,3.80
2019-01-16T05:38:27.507Z,3.47
2019-01-16T05:41:32.789Z,5.75
2019-01-16T05:44:28.685Z,3.60
2019-01-16T05:47:37.070Z,8.63
2019-01-16T05:50:28.461Z,13.77
2019-01-16T05:53:16.779Z,5.50
2019-01-16T05:56:00.883Z,5.57
2019-01-16T05:58:42.831Z,4.47
2019-01-16T06:01:39.457Z,4.03
2019-01-16T06:04:37.917Z,6.23
2019-01-16T06:07:33.507Z,5.78
2019-01-16T06:10:23.438Z,5.95
2019-01-16T06:13:12.220Z,5.87
2019-01-16T06:15:51.744Z,2.87
2019-01-16T06:18:47.728Z,6.50
2019-01-16T06:21:49.740Z,6.83
2019-01-16T06:24:42.039Z,4.70
2019-01-16T06:27:37.332Z,5.03
2019-01-16T06:30:36.237Z,5.12
2019-01-16T06:33:17.092Z,6.63
2019-01-16T06:36:15.434Z,8.13
2019-01-16T06:39:07.664Z,4.50
2019-01-16T06:41:56.399Z,5.33
2019-01-16T06:44:45.933Z,6.53
2019-01-16T06:47:36.534Z,9.27
2019-01-16T06:50:39.763Z,3.23
2019-01-16T06:53:42.327Z,5.37
2019-01-16T06:56:30.008Z,7.73
2019-01-16T06:59:12.672Z,4.63
2019-01-16T07:02:11.697Z,6.63
2019-01-16T07:05:13.677Z,4.80
2019-01-16T07:08:13.211Z,10.70
2019-01-16T07:11:01.266Z,5.93
2019-01-16T07:13:42.827Z,7.30
2019-01-16T07:16:38.513Z,9.70
2019-01-16T07:19:26.689Z,4.65
2019-01-16T07:22:14.999Z,7.60
2019-01-16T07:25:03.076Z,6.73
2019-01-16T07:28:04.429Z,7.27
2019-01-16T07:30:52.952Z,7.60
2019-01-16T07:33:42.457Z,7.07
2019-01-16T07:36:28.061Z,4.83
2019-01-16T07:39:20.185Z,6.15
2019-01-16T07:42:16.479Z,7.37
2019-01-16T07:45:04.188Z,6.37
2019-01-16T07:48:02.008Z,10.10
2019-01-16T07:50:50.540Z,5.30
2019-01-16T07:53:58.456Z,8.77
2019-01-16T07:56:47.883Z,8.37
2019-01-16T07:59:40.273Z,5.90
2019-01-16T08:02:28.538Z,4.93
2019-01-16T08:05:17.176Z,6.10
2019-01-16T08:08:24.954Z,7.03
2019-01-16T08:11:23.925Z,6.22
2019-01-16T08:14:13.646Z,5.37
2019-01-16T08:16:56.525Z,5.67
2019-01-16T08:19:48.792Z,9.50
2019-01-16T08:22:40.281Z,6.83
2019-01-16T08:25:38.613Z,6.33
2019-01-16T08:28:27.623Z,8.95
2019-01-16T08:31:16.567Z,6.25
2019-01-16T08:34:05.976Z,7.83
2019-01-16T08:36:57.088Z,8.77
2019-01-16T08:39:45.384Z,5.87
2019-01-16T08:42:33.956Z,9.87
2019-01-16T08:45:29.500Z,7.22
2019-01-16T08:48:34.254Z,7.90
2019-01-16T08:51:27.131Z,15.05
2019-01-16T08:54:24.244Z,5.28
2019-01-16T08:57:10.959Z,6.05
2019-01-16T08:59:59.750Z,11.35
2019-01-16T09:02:58.444Z,7.50
2019-01-16T09:05:54.058Z,7.50
2019-01-16T09:08:43.828Z,12.10
2019-01-16T09:11:32.214Z,7.40
2019-01-16T09:14:30.922Z,10.10
2019-01-16T09:17:29.283Z,5.45
2019-01-16T09:20:17.960Z,5.30
2019-01-16T09:23:01.183Z,5.87
2019-01-16T09:25:56.710Z,7.57
2019-01-16T09:28:46.158Z,6.20
2019-01-16T09:31:41.499Z,6.77
2019-01-16T09:34:43.067Z,6.80
2019-01-16T09:37:38.908Z,7.27
2019-01-16T09:40:27.423Z,9.00
2019-01-16T09:43:21.772Z,5.83
2019-01-16T09:46:14.945Z,6.75
2019-01-16T09:49:04.499Z,5.93
2019-01-16T09:52:05.852Z,7.23
2019-01-16T09:54:54.438Z,6.40
2019-01-16T09:57:44.298Z,6.43
2019-01-16T10:00:42.728Z,5.70
2019-01-16T10:03:37.082Z,7.20
2019-01-16T10:06:29.373Z,6.75
2019-01-16T10:09:17.834Z,3.80
2019-01-16T10:12:06.145Z,4.93
2019-01-16T10:14:55.616Z,9.10
2019-01-16T10:17:57.293Z,7.27
2019-01-16T10:20:59.245Z,3.90
2019-01-16T10:23:48.683Z,6.50
2019-01-16T10:26:44.063Z,7.37
2019-01-16T10:29:23.319Z,6.27
2019-01-16T10:32:07.629Z,3.27
2019-01-16T10:35:12.399Z,6.33
2019-01-16T10:38:10.785Z,7.27
2019-01-16T10:40:56.202Z,8.07
2019-01-16T10:43:45.882Z,5.33
2019-01-16T10:46:38.166Z,3.93
2019-01-16T10:49:28.166Z,6.65
2019-01-16T10:52:13.621Z,5.17
2019-01-16T10:55:01.754Z,6.00
2019-01-16T10:58:09.638Z,5.13
2019-01-16T11:01:02.079Z,7.50
2019-01-16T11:03:51.714Z,6.90
2019-01-16T11:06:39.874Z,5.80
2019-01-16T11:09:23.718Z,7.03
2019-01-16T11:12:12.330Z,4.50
2019-01-16T11:14:57.196Z,5.50
2019-01-16T11:18:02.033Z,5.80
2019-01-16T11:20:43.836Z,6.37
2019-01-16T11:23:45.387Z,7.37
2019-01-16T11:26:41.258Z,4.97
2019-01-16T11:29:42.941Z,4.83
2019-01-16T11:32:35.125Z,7.43
2019-01-16T11:35:35.654Z,10.97
2019-01-16T11:38:37.443Z,7.10
2019-01-16T11:41:42.695Z,9.80
2019-01-16T11:44:32.202Z,6.17
2019-01-16T11:47:20.531Z,5.95
2019-01-16T11:50:18.428Z,5.83
2019-01-16T11:53:04.554Z,5.93
2019-01-16T11:55:54.698Z,8.43
2019-01-16T11:58:51.994Z,5.20
2019-01-16T12:01:40.161Z,5.53
2019-01-16T12:04:25.345Z,5.70
2019-01-16T12:07:18.323Z,8.83
2019-01-16T12:10:06.779Z,8.47
2019-01-16T12:12:47.535Z,6.70
2019-01-16T12:15:36.929Z,5.07
2019-01-16T12:18:25.819Z,5.13
2019-01-16T12:21:14.754Z,6.30
2019-01-16T12:23:58.672Z,6.90
2019-01-16T12:26:48.184Z,6.83
2019-01-16T12:29:47.965Z,7.80
2019-01-16T12:32:40.198Z,7.87
2019-01-16T12:35:32.887Z,10.13
2019-01-16T12:38:26.147Z,11.63
2019-01-16T12:41:30.694Z,8.07
2019-01-16T12:44:20.705Z,6.78
2019-01-16T12:47:29.078Z,9.57
2019-01-16T12:50:15.633Z,6.70
2019-01-16T12:53:09.154Z,13.40
2019-01-16T12:55:59.715Z,4.83
2019-01-16T12:58:47.884Z,7.17
2019-01-16T13:01:49.423Z,9.03
2019-01-16T13:04:41.624Z,6.03
2019-01-16T13:07:46.497Z,6.90
2019-01-16T13:10:34.657Z,5.40
2019-01-16T13:13:39.493Z,5.80
2019-01-16T13:16:32.143Z,7.87
2019-01-16T13:19:20.822Z,5.97
2019-01-16T13:22:14.376Z,5.83
2019-01-16T13:25:13.770Z,6.00
2019-01-16T13:28:09.108Z,8.40
2019-01-16T13:31:01.377Z,5.70
2019-01-16T13:33:40.848Z,5.77
2019-01-16T13:36:30.958Z,7.00
2019-01-16T13:39:20.130Z,9.80
2019-01-16T13:42:14.656Z,6.33
2019-01-16T13:44:59.411Z,7.43
2019-01-16T13:47:46.361Z,4.40
2019-01-16T13:50:51.403Z,5.93
2019-01-16T13:53:39.569Z,7.73
2019-01-16T13:56:32.490Z,9.90
2019-01-16T13:59:21.059Z,6.90
2019-01-16T14:02:02.944Z,6.67
2019-01-16T14:05:01.509Z,6.03
2019-01-16T14:07:50.599Z,8.63
2019-01-16T14:10:30.547Z,6.07
2019-01-16T14:13:32.692Z,11.22
2019-01-16T14:16:34.736Z,8.48
2019-01-16T14:19:31.150Z,8.95
2019-01-16T14:22:20.950Z,6.08
2019-01-16T14:25:05.901Z,6.30
2019-01-16T14:28:08.191Z,5.50
2019-01-16T14:31:10.092Z,5.53
2019-01-16T14:33:58.413Z,5.57
2019-01-16T14:36:46.846Z,3.97
2019-01-16T14:39:48.164Z,3.67
2019-01-16T14:42:39.101Z,4.00
2019-01-16T14:45:46.768Z,7.40
2019-01-16T14:48:45.968Z,8.20
2019-01-16T14:51:27.675Z,4.80
2019-01-16T14:54:16.052Z,7.35
2019-01-16T14:57:18.486Z,4.83
2019-01-16T15:00:08.051Z,5.00
2019-01-16T15:03:03.538Z,5.40
2019-01-16T15:05:57.920Z,5.80
2019-01-16T15:08:40.407Z,8.13
2019-01-16T15:11:31.403Z,6.33
2019-01-16T15:14:21.263Z,7.17
2019-01-16T15:17:08.487Z,8.20
2019-01-16T15:20:00.816Z,4.97
2019-01-16T15:22:56.623Z,8.50
2019-01-16T15:25:49.660Z,7.85
2019-01-16T15:28:57.957Z,10.78
2019-01-16T15:31:47.533Z,7.47
2019-01-16T15:34:40.171Z,9.10
2019-01-16T15:37:20.151Z,6.97
2019-01-16T15:40:13.833Z,6.28
2019-01-16T15:43:03.545Z,9.00
2019-01-16T15:45:52.462Z,9.77
2019-01-16T15:48:40.890Z,7.13
2019-01-16T15:51:28.194Z,9.30
2019-01-16T15:54:12.105Z,9.27
2019-01-16T15:57:00.620Z,7.03
2019-01-16T15:59:49.784Z,5.83
2019-01-16T16:03:00.173Z,6.40
2019-01-16T16:05:48.540Z,9.83
2019-01-16T16:08:53.316Z,8.53
2019-01-16T16:11:44.164Z,7.97
2019-01-16T16:14:30.492Z,22.10
2019-01-16T16:17:26.034Z,23.07
2019-01-16T16:20:14.694Z,21.20
2019-01-16T16:23:10.006Z,19.57
2019-01-16T16:26:11.733Z,16.27
2019-01-16T16:29:02.030Z,10.50
2019-01-16T16:31:51.646Z,7.73
2019-01-16T16:34:33.799Z,9.97
2019-01-16T16:37:36.596Z,11.60
2019-01-16T16:40:20.561Z,10.20
2019-01-16T16:43:14.926Z,9.88
2019-01-16T16:46:17.618Z,10.80
2019-01-16T16:49:12.927Z,10.43
2019-01-16T16:52:01.170Z,12.13
2019-01-16T16:54:49.301Z,8.90
2019-01-16T16:57:51.574Z,11.27
2019-01-16T17:00:41.844Z,12.27
2019-01-16T17:03:31.650Z,11.07
2019-01-16T17:06:19.872Z,10.35
2019-01-16T17:09:19.835Z,12.76
2019-01-16T17:12:29.355Z,7.16
2019-01-16T17:15:19.021Z,8.00
2019-01-16T17:18:12.023Z,9.98
2019-01-16T17:21:01.031Z,8.17
2019-01-16T17:23:49.583Z,9.00
2019-01-16T17:26:37.992Z,13.07
2019-01-16T17:29:26.777Z,8.68
2019-01-16T17:32:05.039Z,8.53
2019-01-16T17:34:54.846Z,10.60
2019-01-16T17:37:42.966Z,10.23
2019-01-16T17:40:37.498Z,8.50
2019-01-16T17:43:25.737Z,9.15
2019-01-16T17:46:24.585Z,11.38
2019-01-16T17:49:18.477Z,10.23
2019-01-16T17:52:06.680Z,11.50
2019-01-16T17:55:14.675Z,8.80
2019-01-16T17:58:05.940Z,8.80
2019-01-16T18:00:50.213Z,8.77
2019-01-16T18:03:38.461Z,10.87
2019-01-16T18:06:26.752Z,10.10
2019-01-16T18:09:11.664Z,11.33
2019-01-16T18:12:04.159Z,7.63
2019-01-16T18:14:54.136Z,7.43
2019-01-16T18:17:52.918Z,7.57
2019-01-16T18:20:45.200Z,9.60
2019-01-16T18:23:26.638Z,9.07
2019-01-16T18:26:15.105Z,7.47
2019-01-16T18:29:04.949Z,9.57
2019-01-16T18:32:03.582Z,8.43
2019-01-16T18:35:05.152Z,6.53
2019-01-16T18:37:44.902Z,6.27
2019-01-16T18:40:24.085Z,6.50
2019-01-16T18:43:22.854Z,7.03
2019-01-16T18:46:24.770Z,7.05
2019-01-16T18:49:14.551Z,7.77
2019-01-16T18:52:19.326Z,9.87
2019-01-16T18:55:23.761Z,10.30
2019-01-16T18:58:03.775Z,8.40
2019-01-16T19:01:08.628Z,8.53
2019-01-16T19:03:50.331Z,8.60
2019-01-16T19:06:38.471Z,8.83
2019-01-16T19:09:29.516Z,8.73
2019-01-16T19:12:17.900Z,6.72
2019-01-16T19:15:25.830Z,8.77
2019-01-16T19:18:20.766Z,10.70
2019-01-16T19:21:26.461Z,14.63
2019-01-16T19:24:17.075Z,9.90
2019-01-16T19:27:09.708Z,8.33
2019-01-16T19:30:05.288Z,10.83
2019-01-16T19:33:07.405Z,6.83
2019-01-16T19:35:55.837Z,7.03
2019-01-16T19:38:44.409Z,7.97
2019-01-16T19:41:32.767Z,4.90
2019-01-16T19:44:18.169Z,6.63
2019-01-16T19:47:10.855Z,6.70
2019-01-16T19:50:15.682Z,6.83
2019-01-16T19:53:10.048Z,7.47
2019-01-16T19:55:58.320Z,5.03
2019-01-16T19:58:51.061Z,4.47
2019-01-16T20:01:39.865Z,6.35
2019-01-16T20:04:29.459Z,6.65
2019-01-16T20:07:25.359Z,5.30
2019-01-16T20:10:15.330Z,6.53
2019-01-16T20:13:08.059Z,6.73
2019-01-16T20:16:00.518Z,8.50
2019-01-16T20:18:52.974Z,4.93
2019-01-16T20:21:51.544Z,6.80
2019-01-16T20:24:40.604Z,5.43
2019-01-16T20:27:28.801Z,5.33
2019-01-16T20:30:21.780Z,4.80
2019-01-16T20:33:07.806Z,7.03
2019-01-16T20:35:56.001Z,5.63
2019-01-16T20:38:44.098Z,10.30
2019-01-16T20:41:32.620Z,14.47
2019-01-16T20:44:18.500Z,12.33
2019-01-16T20:47:05.686Z,8.93
2019-01-16T20:49:53.980Z,7.77
2019-01-16T20:52:49.707Z,8.40
2019-01-16T20:55:33.481Z,7.57
2019-01-16T20:58:32.816Z,4.20
2019-01-16T21:01:28.527Z,6.63
2019-01-16T21:04:33.309Z,5.47
2019-01-16T21:07:31.646Z,5.00
2019-01-16T21:10:12.839Z,5.35
2019-01-16T21:13:17.431Z,4.53
2019-01-16T21:16:06.552Z,7.53
2019-01-16T21:22:01.754Z,5.17
2019-01-16T21:24:57.400Z,4.63
2019-01-16T21:27:49.958Z,6.93
2019-01-16T21:31:00.562Z,5.00
2019-01-16T21:33:56.215Z,5.03
2019-01-16T21:36:44.350Z,4.63
2019-01-16T21:39:32.964Z,6.13
2019-01-16T21:42:31.567Z,7.03
2019-01-16T21:45:27.384Z,4.67
2019-01-16T21:48:11.934Z,5.22
2019-01-16T21:51:00.262Z,7.90
2019-01-16T21:53:48.305Z,4.77
2019-01-16T21:56:35.770Z,4.97
2019-01-16T21:59:37.703Z,5.23
2019-01-16T22:02:23.199Z,4.15
2019-01-16T22:05:13.274Z,6.70
2019-01-16T22:07:56.738Z,5.37
2019-01-16T22:10:55.447Z,5.07
2019-01-16T22:13:45.022Z,3.20
2019-01-16T22:16:33.322Z,3.47
2019-01-16T22:19:22.257Z,5.58
2019-01-16T22:22:30.063Z,3.63
2019-01-16T22:25:28.550Z,5.15
2019-01-16T22:28:10.169Z,3.10
2019-01-16T22:31:05.733Z,3.77
2019-01-16T22:33:53.959Z,3.80
2019-01-16T22:36:46.465Z,4.30
2019-01-16T22:39:42.070Z,4.50
2019-01-16T22:42:30.144Z,5.00
2019-01-16T22:45:12.050Z,4.08
2019-01-16T22:48:05.945Z,5.80
2019-01-16T22:50:55.432Z,3.07
2019-01-16T22:53:43.724Z,3.50
2019-01-16T22:56:36.400Z,4.37
2019-01-16T22:59:24.052Z,3.33
2019-01-16T23:02:16.552Z,2.63
2019-01-16T23:05:12.391Z,5.40
2019-01-16T23:08:07.946Z,6.25
2019-01-16T23:11:12.949Z,3.70
2019-01-16T23:14:20.777Z,3.70
2019-01-16T23:17:23.968Z,3.12
2019-01-16T23:20:17.419Z,7.83
2019-01-16T23:23:02.385Z,4.47
2019-01-16T23:25:49.685Z,3.87
2019-01-16T23:28:37.963Z,4.43
2019-01-16T23:31:26.369Z,2.95
2019-01-16T23:34:14.697Z,5.60
2019-01-16T23:37:03.049Z,5.37
2019-01-16T23:39:52.512Z,3.97
2019-01-16T23:42:44.996Z,3.00
2019-01-16T23:45:34.430Z,3.43
2019-01-16T23:48:33.296Z,2.87
2019-01-16T23:51:18.528Z,6.40
2019-01-16T23:54:15.615Z,3.73
2019-01-16T23:57:11.717Z,5.60
